sensor_id;sensor_type;location;lat;lon;timestamp;P1;durP1;ratioP1;P2;durP2;ratioP2
57746;SDS011;43580;44.014;20.466;2023-01-29T00:01:08;120.88;;;49.08;;
57746;SDS011;43580;44.014;20.466;2023-01-29T00:03:34;106.00;;;46.42;;
57746;SDS011;43580;44.014;20.466;2023-01-29T00:06:04;92.28;;;37.83;;
57746;SDS011;43580;44.014;20.466;2023-01-29T00:08:34;116.50;;;52.72;;
57746;SDS011;43580;44.014;20.466;2023-01-29T00:11:04;105.78;;;46.63;;
57746;SDS011;43580;44.014;20.466;2023-01-29T00:13:30;122.53;;;55.25;;
57746;SDS011;43580;44.014;20.466;2023-01-29T00:15:58;86.28;;;39.53;;
57746;SDS011;43580;44.014;20.466;2023-01-29T00:18:25;89.32;;;39.72;;
57746;SDS011;43580;44.014;20.466;2023-01-29T00:20:52;91.32;;;40.58;;
57746;SDS011;43580;44.014;20.466;2023-01-29T00:23:18;96.75;;;40.13;;
57746;SDS011;43580;44.014;20.466;2023-01-29T00:25:44;90.38;;;42.00;;
57746;SDS011;43580;44.014;20.466;2023-01-29T00:28:11;83.80;;;33.67;;
57746;SDS011;43580;44.014;20.466;2023-01-29T00:30:37;85.25;;;45.63;;
57746;SDS011;43580;44.014;20.466;2023-01-29T00:33:03;89.03;;;39.05;;
57746;SDS011;43580;44.014;20.466;2023-01-29T00:35:30;78.20;;;39.10;;
57746;SDS011;43580;44.014;20.466;2023-01-29T00:37:56;75.68;;;32.40;;
57746;SDS011;43580;44.014;20.466;2023-01-29T00:40:23;76.18;;;36.33;;
57746;SDS011;43580;44.014;20.466;2023-01-29T00:42:49;74.53;;;36.30;;
57746;SDS011;43580;44.014;20.466;2023-01-29T00:45:34;68.30;;;28.75;;
57746;SDS011;43580;44.014;20.466;2023-01-29T00:48:01;88.97;;;41.25;;
57746;SDS011;43580;44.014;20.466;2023-01-29T00:50:27;76.45;;;36.35;;
57746;SDS011;43580;44.014;20.466;2023-01-29T00:52:53;63.72;;;30.80;;
57746;SDS011;43580;44.014;20.466;2023-01-29T00:55:19;73.03;;;40.85;;
57746;SDS011;43580;44.014;20.466;2023-01-29T00:57:45;74.97;;;43.03;;
57746;SDS011;43580;44.014;20.466;2023-01-29T01:00:13;75.40;;;35.40;;
57746;SDS011;43580;44.014;20.466;2023-01-29T01:02:39;74.07;;;38.83;;
57746;SDS011;43580;44.014;20.466;2023-01-29T01:05:24;74.65;;;36.67;;
57746;SDS011;43580;44.014;20.466;2023-01-29T01:07:51;77.10;;;39.85;;
57746;SDS011;43580;44.014;20.466;2023-01-29T01:10:18;81.18;;;37.40;;
57746;SDS011;43580;44.014;20.466;2023-01-29T01:12:45;76.85;;;38.63;;
57746;SDS011;43580;44.014;20.466;2023-01-29T01:15:11;68.57;;;33.95;;
57746;SDS011;43580;44.014;20.466;2023-01-29T01:17:37;74.90;;;36.00;;
57746;SDS011;43580;44.014;20.466;2023-01-29T01:20:23;74.40;;;38.15;;
57746;SDS011;43580;44.014;20.466;2023-01-29T01:22:49;76.38;;;34.70;;
57746;SDS011;43580;44.014;20.466;2023-01-29T01:25:15;73.18;;;34.92;;
57746;SDS011;43580;44.014;20.466;2023-01-29T01:27:42;71.32;;;34.05;;
57746;SDS011;43580;44.014;20.466;2023-01-29T01:30:12;86.07;;;39.40;;
57746;SDS011;43580;44.014;20.466;2023-01-29T01:32:39;79.40;;;37.25;;
57746;SDS011;43580;44.014;20.466;2023-01-29T01:35:05;64.97;;;35.90;;
57746;SDS011;43580;44.014;20.466;2023-01-29T01:37:32;76.07;;;36.88;;
57746;SDS011;43580;44.014;20.466;2023-01-29T01:40:02;69.75;;;33.90;;
57746;SDS011;43580;44.014;20.466;2023-01-29T01:42:29;78.57;;;34.92;;
57746;SDS011;43580;44.014;20.466;2023-01-29T01:44:57;70.90;;;29.40;;
57746;SDS011;43580;44.014;20.466;2023-01-29T01:47:29;77.53;;;36.28;;
57746;SDS011;43580;44.014;20.466;2023-01-29T01:49:56;66.28;;;30.73;;
57746;SDS011;43580;44.014;20.466;2023-01-29T01:52:26;74.28;;;33.67;;
57746;SDS011;43580;44.014;20.466;2023-01-29T01:54:53;69.57;;;37.92;;
57746;SDS011;43580;44.014;20.466;2023-01-29T01:57:22;58.78;;;34.00;;
57746;SDS011;43580;44.014;20.466;2023-01-29T02:00:09;59.10;;;28.50;;
57746;SDS011;43580;44.014;20.466;2023-01-29T02:02:37;59.58;;;31.17;;
57746;SDS011;43580;44.014;20.466;2023-01-29T02:05:23;63.15;;;31.85;;
57746;SDS011;43580;44.014;20.466;2023-01-29T02:08:08;64.50;;;30.67;;
57746;SDS011;43580;44.014;20.466;2023-01-29T02:10:56;60.60;;;25.75;;
57746;SDS011;43580;44.014;20.466;2023-01-29T02:13:22;65.30;;;30.25;;
57746;SDS011;43580;44.014;20.466;2023-01-29T02:15:48;64.18;;;33.15;;
57746;SDS011;43580;44.014;20.466;2023-01-29T02:18:19;61.33;;;31.55;;
57746;SDS011;43580;44.014;20.466;2023-01-29T02:20:58;71.18;;;33.63;;
57746;SDS011;43580;44.014;20.466;2023-01-29T02:28:40;64.50;;;30.08;;
57746;SDS011;43580;44.014;20.466;2023-01-29T02:39:00;62.30;;;30.13;;
57746;SDS011;43580;44.014;20.466;2023-01-29T02:41:29;60.67;;;29.20;;
57746;SDS011;43580;44.014;20.466;2023-01-29T02:43:58;66.88;;;31.25;;
57746;SDS011;43580;44.014;20.466;2023-01-29T02:49:01;58.53;;;30.40;;
57746;SDS011;43580;44.014;20.466;2023-01-29T02:51:42;60.92;;;29.55;;
57746;SDS011;43580;44.014;20.466;2023-01-29T02:54:16;61.00;;;29.88;;
57746;SDS011;43580;44.014;20.466;2023-01-29T02:59:15;56.35;;;27.63;;
57746;SDS011;43580;44.014;20.466;2023-01-29T03:01:47;62.03;;;29.73;;
57746;SDS011;43580;44.014;20.466;2023-01-29T03:04:21;60.88;;;28.90;;
57746;SDS011;43580;44.014;20.466;2023-01-29T03:06:48;66.68;;;32.60;;
57746;SDS011;43580;44.014;20.466;2023-01-29T03:09:25;65.78;;;32.90;;
57746;SDS011;43580;44.014;20.466;2023-01-29T03:11:58;60.45;;;31.70;;
57746;SDS011;43580;44.014;20.466;2023-01-29T03:14:42;51.10;;;28.05;;
57746;SDS011;43580;44.014;20.466;2023-01-29T03:17:29;49.22;;;24.67;;
57746;SDS011;43580;44.014;20.466;2023-01-29T03:19:58;60.38;;;28.83;;
57746;SDS011;43580;44.014;20.466;2023-01-29T03:22:25;59.72;;;30.40;;
57746;SDS011;43580;44.014;20.466;2023-01-29T03:24:56;60.05;;;30.83;;
57746;SDS011;43580;44.014;20.466;2023-01-29T03:27:45;63.78;;;29.95;;
57746;SDS011;43580;44.014;20.466;2023-01-29T03:30:32;61.15;;;29.73;;
57746;SDS011;43580;44.014;20.466;2023-01-29T03:33:19;66.28;;;30.40;;
57746;SDS011;43580;44.014;20.466;2023-01-29T03:35:49;85.28;;;39.47;;
57746;SDS011;43580;44.014;20.466;2023-01-29T03:38:17;80.32;;;37.13;;
57746;SDS011;43580;44.014;20.466;2023-01-29T03:40:51;73.85;;;36.47;;
57746;SDS011;43580;44.014;20.466;2023-01-29T03:43:54;75.93;;;35.03;;
57746;SDS011;43580;44.014;20.466;2023-01-29T03:46:44;78.53;;;35.92;;
57746;SDS011;43580;44.014;20.466;2023-01-29T03:49:09;76.90;;;34.67;;
57746;SDS011;43580;44.014;20.466;2023-01-29T03:51:39;116.32;;;51.83;;
57746;SDS011;43580;44.014;20.466;2023-01-29T03:54:53;67.57;;;32.00;;
57746;SDS011;43580;44.014;20.466;2023-01-29T04:01:54;82.55;;;37.60;;
57746;SDS011;43580;44.014;20.466;2023-01-29T04:04:25;83.15;;;42.63;;
57746;SDS011;43580;44.014;20.466;2023-01-29T04:06:53;86.28;;;41.33;;
57746;SDS011;43580;44.014;20.466;2023-01-29T04:09:28;75.10;;;37.00;;
57746;SDS011;43580;44.014;20.466;2023-01-29T04:12:03;81.80;;;38.90;;
57746;SDS011;43580;44.014;20.466;2023-01-29T04:14:31;76.13;;;37.30;;
57746;SDS011;43580;44.014;20.466;2023-01-29T04:16:59;78.32;;;41.92;;
57746;SDS011;43580;44.014;20.466;2023-01-29T04:19:31;71.00;;;34.20;;
57746;SDS011;43580;44.014;20.466;2023-01-29T04:22:03;99.68;;;51.10;;
57746;SDS011;43580;44.014;20.466;2023-01-29T04:24:33;55.30;;;26.23;;
57746;SDS011;43580;44.014;20.466;2023-01-29T04:29:48;70.47;;;35.80;;
57746;SDS011;43580;44.014;20.466;2023-01-29T04:34:50;76.20;;;37.78;;
57746;SDS011;43580;44.014;20.466;2023-01-29T04:42:43;78.53;;;37.03;;
57746;SDS011;43580;44.014;20.466;2023-01-29T04:45:18;95.05;;;44.38;;
57746;SDS011;43580;44.014;20.466;2023-01-29T04:50:32;76.07;;;36.47;;
57746;SDS011;43580;44.014;20.466;2023-01-29T04:55:59;77.43;;;33.03;;
57746;SDS011;43580;44.014;20.466;2023-01-29T04:58:32;76.60;;;38.92;;
57746;SDS011;43580;44.014;20.466;2023-01-29T05:01:02;84.25;;;33.50;;
57746;SDS011;43580;44.014;20.466;2023-01-29T05:03:29;77.30;;;40.25;;
57746;SDS011;43580;44.014;20.466;2023-01-29T05:05:57;66.65;;;31.40;;
57746;SDS011;43580;44.014;20.466;2023-01-29T05:08:25;85.05;;;40.15;;
57746;SDS011;43580;44.014;20.466;2023-01-29T05:10:52;75.15;;;35.97;;
57746;SDS011;43580;44.014;20.466;2023-01-29T05:13:20;74.07;;;35.88;;
57746;SDS011;43580;44.014;20.466;2023-01-29T05:15:48;72.97;;;35.50;;
57746;SDS011;43580;44.014;20.466;2023-01-29T05:18:15;86.55;;;38.58;;
57746;SDS011;43580;44.014;20.466;2023-01-29T05:20:41;73.90;;;40.67;;
57746;SDS011;43580;44.014;20.466;2023-01-29T05:23:20;85.72;;;40.17;;
57746;SDS011;43580;44.014;20.466;2023-01-29T05:25:47;75.32;;;32.78;;
57746;SDS011;43580;44.014;20.466;2023-01-29T05:28:13;86.22;;;39.10;;
57746;SDS011;43580;44.014;20.466;2023-01-29T05:30:46;79.30;;;35.28;;
57746;SDS011;43580;44.014;20.466;2023-01-29T05:35:44;82.05;;;36.97;;
57746;SDS011;43580;44.014;20.466;2023-01-29T05:38:13;92.47;;;38.25;;
57746;SDS011;43580;44.014;20.466;2023-01-29T05:40:39;86.35;;;36.20;;
57746;SDS011;43580;44.014;20.466;2023-01-29T05:43:10;81.43;;;37.20;;
57746;SDS011;43580;44.014;20.466;2023-01-29T05:45:38;84.88;;;37.78;;
57746;SDS011;43580;44.014;20.466;2023-01-29T05:48:04;87.35;;;40.42;;
57746;SDS011;43580;44.014;20.466;2023-01-29T05:50:30;82.55;;;37.95;;
57746;SDS011;43580;44.014;20.466;2023-01-29T05:53:00;109.50;;;49.72;;
57746;SDS011;43580;44.014;20.466;2023-01-29T05:55:26;84.30;;;31.90;;
57746;SDS011;43580;44.014;20.466;2023-01-29T05:57:56;85.07;;;37.72;;
57746;SDS011;43580;44.014;20.466;2023-01-29T06:00:22;78.25;;;35.85;;
57746;SDS011;43580;44.014;20.466;2023-01-29T06:02:48;84.35;;;37.13;;
57746;SDS011;43580;44.014;20.466;2023-01-29T06:05:14;78.25;;;39.75;;
57746;SDS011;43580;44.014;20.466;2023-01-29T06:07:40;72.90;;;38.72;;
57746;SDS011;43580;44.014;20.466;2023-01-29T06:10:13;83.97;;;35.22;;
57746;SDS011;43580;44.014;20.466;2023-01-29T06:12:40;83.88;;;37.33;;
57746;SDS011;43580;44.014;20.466;2023-01-29T06:15:06;84.25;;;40.85;;
57746;SDS011;43580;44.014;20.466;2023-01-29T06:17:32;92.72;;;41.58;;
57746;SDS011;43580;44.014;20.466;2023-01-29T06:19:58;84.07;;;34.58;;
57746;SDS011;43580;44.014;20.466;2023-01-29T06:22:27;76.43;;;36.78;;
57746;SDS011;43580;44.014;20.466;2023-01-29T06:24:53;87.25;;;42.78;;
57746;SDS011;43580;44.014;20.466;2023-01-29T06:27:19;80.75;;;36.13;;
57746;SDS011;43580;44.014;20.466;2023-01-29T06:29:47;84.70;;;39.08;;
57746;SDS011;43580;44.014;20.466;2023-01-29T06:32:13;79.95;;;38.20;;
57746;SDS011;43580;44.014;20.466;2023-01-29T06:34:42;78.80;;;38.30;;
57746;SDS011;43580;44.014;20.466;2023-01-29T06:37:08;100.65;;;50.55;;
57746;SDS011;43580;44.014;20.466;2023-01-29T06:39:34;85.15;;;40.85;;
57746;SDS011;43580;44.014;20.466;2023-01-29T06:42:05;96.68;;;47.90;;
57746;SDS011;43580;44.014;20.466;2023-01-29T06:44:31;87.20;;;43.17;;
57746;SDS011;43580;44.014;20.466;2023-01-29T06:46:57;118.63;;;53.80;;
57746;SDS011;43580;44.014;20.466;2023-01-29T06:49:23;83.38;;;36.45;;
57746;SDS011;43580;44.014;20.466;2023-01-29T06:51:49;102.85;;;50.35;;
57746;SDS011;43580;44.014;20.466;2023-01-29T06:54:15;87.07;;;32.75;;
57746;SDS011;43580;44.014;20.466;2023-01-29T06:56:41;78.32;;;40.45;;
57746;SDS011;43580;44.014;20.466;2023-01-29T06:59:10;98.40;;;49.10;;
57746;SDS011;43580;44.014;20.466;2023-01-29T07:01:39;89.25;;;44.63;;
57746;SDS011;43580;44.014;20.466;2023-01-29T07:04:08;80.32;;;36.05;;
57746;SDS011;43580;44.014;20.466;2023-01-29T07:06:34;103.97;;;52.03;;
57746;SDS011;43580;44.014;20.466;2023-01-29T07:09:00;99.82;;;50.90;;
57746;SDS011;43580;44.014;20.466;2023-01-29T07:11:27;83.03;;;42.97;;
57746;SDS011;43580;44.014;20.466;2023-01-29T07:13:55;85.90;;;42.88;;
57746;SDS011;43580;44.014;20.466;2023-01-29T07:16:22;79.10;;;38.13;;
57746;SDS011;43580;44.014;20.466;2023-01-29T07:18:49;113.75;;;57.75;;
57746;SDS011;43580;44.014;20.466;2023-01-29T07:21:17;82.97;;;35.83;;
57746;SDS011;43580;44.014;20.466;2023-01-29T07:23:43;69.32;;;35.42;;
57746;SDS011;43580;44.014;20.466;2023-01-29T07:26:09;74.95;;;38.97;;
57746;SDS011;43580;44.014;20.466;2023-01-29T07:28:36;75.28;;;37.33;;
57746;SDS011;43580;44.014;20.466;2023-01-29T07:31:02;74.68;;;37.92;;
57746;SDS011;43580;44.014;20.466;2023-01-29T07:33:29;94.95;;;48.05;;
57746;SDS011;43580;44.014;20.466;2023-01-29T07:35:57;81.50;;;44.47;;
57746;SDS011;43580;44.014;20.466;2023-01-29T07:38:23;76.70;;;38.33;;
57746;SDS011;43580;44.014;20.466;2023-01-29T07:40:52;76.28;;;45.00;;
57746;SDS011;43580;44.014;20.466;2023-01-29T07:43:18;69.85;;;37.63;;
57746;SDS011;43580;44.014;20.466;2023-01-29T07:45:45;77.90;;;39.85;;
57746;SDS011;43580;44.014;20.466;2023-01-29T07:48:11;52.50;;;25.00;;
57746;SDS011;43580;44.014;20.466;2023-01-29T07:50:37;65.07;;;35.58;;
57746;SDS011;43580;44.014;20.466;2023-01-29T07:53:04;62.63;;;31.15;;
57746;SDS011;43580;44.014;20.466;2023-01-29T07:55:30;74.35;;;34.53;;
57746;SDS011;43580;44.014;20.466;2023-01-29T07:58:00;58.95;;;32.65;;
57746;SDS011;43580;44.014;20.466;2023-01-29T08:00:27;56.67;;;29.05;;
57746;SDS011;43580;44.014;20.466;2023-01-29T08:02:56;44.92;;;21.10;;
57746;SDS011;43580;44.014;20.466;2023-01-29T08:05:26;55.53;;;29.52;;
57746;SDS011;43580;44.014;20.466;2023-01-29T08:07:52;56.63;;;28.27;;
57746;SDS011;43580;44.014;20.466;2023-01-29T08:10:18;57.85;;;30.95;;
57746;SDS011;43580;44.014;20.466;2023-01-29T08:12:44;65.53;;;36.33;;
57746;SDS011;43580;44.014;20.466;2023-01-29T08:15:10;63.90;;;37.78;;
57746;SDS011;43580;44.014;20.466;2023-01-29T08:17:41;60.00;;;32.88;;
57746;SDS011;43580;44.014;20.466;2023-01-29T08:20:08;58.15;;;31.05;;
57746;SDS011;43580;44.014;20.466;2023-01-29T08:22:34;74.50;;;39.85;;
57746;SDS011;43580;44.014;20.466;2023-01-29T08:25:00;61.55;;;34.13;;
57746;SDS011;43580;44.014;20.466;2023-01-29T08:27:26;68.85;;;35.10;;
57746;SDS011;43580;44.014;20.466;2023-01-29T08:29:52;53.53;;;31.38;;
57746;SDS011;43580;44.014;20.466;2023-01-29T08:32:18;61.97;;;37.65;;
57746;SDS011;43580;44.014;20.466;2023-01-29T08:34:44;64.20;;;35.20;;
57746;SDS011;43580;44.014;20.466;2023-01-29T08:37:10;52.30;;;28.48;;
57746;SDS011;43580;44.014;20.466;2023-01-29T08:39:36;84.72;;;37.70;;
57746;SDS011;43580;44.014;20.466;2023-01-29T08:42:02;69.50;;;40.65;;
57746;SDS011;43580;44.014;20.466;2023-01-29T08:44:28;75.47;;;43.70;;
57746;SDS011;43580;44.014;20.466;2023-01-29T08:46:55;70.63;;;36.40;;
57746;SDS011;43580;44.014;20.466;2023-01-29T08:49:21;80.70;;;43.35;;
57746;SDS011;43580;44.014;20.466;2023-01-29T08:51:47;74.78;;;37.65;;
57746;SDS011;43580;44.014;20.466;2023-01-29T08:54:15;75.93;;;42.75;;
57746;SDS011;43580;44.014;20.466;2023-01-29T08:56:43;77.72;;;38.15;;
57746;SDS011;43580;44.014;20.466;2023-01-29T08:59:10;99.97;;;51.92;;
57746;SDS011;43580;44.014;20.466;2023-01-29T09:01:36;72.55;;;34.50;;
57746;SDS011;43580;44.014;20.466;2023-01-29T09:04:02;77.78;;;35.42;;
57746;SDS011;43580;44.014;20.466;2023-01-29T09:06:28;83.95;;;37.05;;
57746;SDS011;43580;44.014;20.466;2023-01-29T09:08:54;87.28;;;44.03;;
57746;SDS011;43580;44.014;20.466;2023-01-29T09:11:20;119.25;;;61.30;;
57746;SDS011;43580;44.014;20.466;2023-01-29T09:13:46;110.40;;;56.75;;
57746;SDS011;43580;44.014;20.466;2023-01-29T09:16:13;87.88;;;47.53;;
57746;SDS011;43580;44.014;20.466;2023-01-29T09:18:39;108.10;;;57.83;;
57746;SDS011;43580;44.014;20.466;2023-01-29T09:21:05;90.57;;;47.92;;
57746;SDS011;43580;44.014;20.466;2023-01-29T09:23:31;80.30;;;45.72;;
57746;SDS011;43580;44.014;20.466;2023-01-29T09:25:57;64.45;;;34.78;;
57746;SDS011;43580;44.014;20.466;2023-01-29T09:28:23;76.70;;;41.10;;
57746;SDS011;43580;44.014;20.466;2023-01-29T09:30:50;70.07;;;39.35;;
57746;SDS011;43580;44.014;20.466;2023-01-29T09:33:16;71.53;;;43.63;;
57746;SDS011;43580;44.014;20.466;2023-01-29T09:35:43;60.60;;;31.77;;
57746;SDS011;43580;44.014;20.466;2023-01-29T09:38:12;70.65;;;46.17;;
57746;SDS011;43580;44.014;20.466;2023-01-29T09:40:57;63.08;;;32.53;;
57746;SDS011;43580;44.014;20.466;2023-01-29T09:46:00;73.13;;;35.58;;
57746;SDS011;43580;44.014;20.466;2023-01-29T09:48:27;65.38;;;34.55;;
57746;SDS011;43580;44.014;20.466;2023-01-29T09:50:55;72.68;;;35.22;;
57746;SDS011;43580;44.014;20.466;2023-01-29T09:55:51;90.85;;;44.95;;
57746;SDS011;43580;44.014;20.466;2023-01-29T09:58:32;80.40;;;40.65;;
57746;SDS011;43580;44.014;20.466;2023-01-29T10:09:14;61.90;;;33.42;;
57746;SDS011;43580;44.014;20.466;2023-01-29T10:14:23;72.35;;;36.10;;
57746;SDS011;43580;44.014;20.466;2023-01-29T10:19:55;57.28;;;29.98;;
57746;SDS011;43580;44.014;20.466;2023-01-29T10:22:29;62.15;;;28.48;;
57746;SDS011;43580;44.014;20.466;2023-01-29T10:24:59;67.78;;;36.60;;
57746;SDS011;43580;44.014;20.466;2023-01-29T10:27:29;78.45;;;40.45;;
57746;SDS011;43580;44.014;20.466;2023-01-29T10:29:59;72.10;;;36.30;;
57746;SDS011;43580;44.014;20.466;2023-01-29T10:32:26;73.25;;;41.00;;
57746;SDS011;43580;44.014;20.466;2023-01-29T10:35:00;63.55;;;35.33;;
57746;SDS011;43580;44.014;20.466;2023-01-29T10:37:36;64.32;;;35.80;;
57746;SDS011;43580;44.014;20.466;2023-01-29T10:40:21;62.60;;;27.35;;
57746;SDS011;43580;44.014;20.466;2023-01-29T10:55:54;57.58;;;34.33;;
57746;SDS011;43580;44.014;20.466;2023-01-29T11:00:49;60.72;;;34.58;;
57746;SDS011;43580;44.014;20.466;2023-01-29T11:03:22;61.13;;;29.20;;
57746;SDS011;43580;44.014;20.466;2023-01-29T11:08:17;66.45;;;33.22;;
57746;SDS011;43580;44.014;20.466;2023-01-29T11:10:56;113.45;;;66.30;;
57746;SDS011;43580;44.014;20.466;2023-01-29T11:13:28;65.55;;;35.78;;
57746;SDS011;43580;44.014;20.466;2023-01-29T11:15:58;57.15;;;29.70;;
57746;SDS011;43580;44.014;20.466;2023-01-29T11:18:24;65.80;;;33.67;;
57746;SDS011;43580;44.014;20.466;2023-01-29T11:21:03;70.05;;;40.20;;
57746;SDS011;43580;44.014;20.466;2023-01-29T11:23:32;60.42;;;30.15;;
57746;SDS011;43580;44.014;20.466;2023-01-29T11:26:00;65.38;;;40.00;;
57746;SDS011;43580;44.014;20.466;2023-01-29T11:31:01;77.55;;;39.47;;
57746;SDS011;43580;44.014;20.466;2023-01-29T11:33:27;70.57;;;35.03;;
57746;SDS011;43580;44.014;20.466;2023-01-29T11:35:53;75.78;;;32.22;;
57746;SDS011;43580;44.014;20.466;2023-01-29T11:38:22;55.40;;;27.02;;
57746;SDS011;43580;44.014;20.466;2023-01-29T11:40:49;72.07;;;36.42;;
57746;SDS011;43580;44.014;20.466;2023-01-29T11:43:28;79.80;;;38.22;;
57746;SDS011;43580;44.014;20.466;2023-01-29T11:45:56;63.53;;;28.15;;
57746;SDS011;43580;44.014;20.466;2023-01-29T11:48:26;59.15;;;28.67;;
57746;SDS011;43580;44.014;20.466;2023-01-29T11:50:57;64.60;;;32.65;;
57746;SDS011;43580;44.014;20.466;2023-01-29T11:54:13;78.22;;;40.33;;
57746;SDS011;43580;44.014;20.466;2023-01-29T11:56:26;75.50;;;34.13;;
57746;SDS011;43580;44.014;20.466;2023-01-29T11:58:53;73.55;;;35.78;;
57746;SDS011;43580;44.014;20.466;2023-01-29T12:01:32;81.30;;;39.60;;
57746;SDS011;43580;44.014;20.466;2023-01-29T12:03:58;79.03;;;39.33;;
57746;SDS011;43580;44.014;20.466;2023-01-29T12:08:58;61.25;;;31.95;;
57746;SDS011;43580;44.014;20.466;2023-01-29T12:13:55;67.35;;;35.92;;
57746;SDS011;43580;44.014;20.466;2023-01-29T12:19:04;71.68;;;33.70;;
57746;SDS011;43580;44.014;20.466;2023-01-29T12:22:20;106.20;;;47.42;;
57746;SDS011;43580;44.014;20.466;2023-01-29T12:29:39;75.78;;;33.97;;
57746;SDS011;43580;44.014;20.466;2023-01-29T12:32:19;68.53;;;31.30;;
57746;SDS011;43580;44.014;20.466;2023-01-29T12:35:00;69.25;;;29.30;;
57746;SDS011;43580;44.014;20.466;2023-01-29T12:37:39;73.28;;;35.15;;
57746;SDS011;43580;44.014;20.466;2023-01-29T12:40:13;91.43;;;40.28;;
57746;SDS011;43580;44.014;20.466;2023-01-29T12:42:40;83.53;;;40.55;;
57746;SDS011;43580;44.014;20.466;2023-01-29T12:45:08;94.28;;;43.08;;
57746;SDS011;43580;44.014;20.466;2023-01-29T12:47:36;69.45;;;39.13;;
57746;SDS011;43580;44.014;20.466;2023-01-29T12:50:27;70.47;;;37.47;;
57746;SDS011;43580;44.014;20.466;2023-01-29T12:52:57;88.38;;;45.47;;
57746;SDS011;43580;44.014;20.466;2023-01-29T12:55:28;87.38;;;41.80;;
57746;SDS011;43580;44.014;20.466;2023-01-29T12:57:59;96.03;;;54.63;;
57746;SDS011;43580;44.014;20.466;2023-01-29T13:00:31;83.25;;;39.55;;
57746;SDS011;43580;44.014;20.466;2023-01-29T13:05:37;100.15;;;55.75;;
57746;SDS011;43580;44.014;20.466;2023-01-29T13:08:07;71.70;;;31.48;;
57746;SDS011;43580;44.014;20.466;2023-01-29T13:10:37;87.88;;;40.67;;
57746;SDS011;43580;44.014;20.466;2023-01-29T13:13:11;73.97;;;36.70;;
57746;SDS011;43580;44.014;20.466;2023-01-29T13:15:39;97.63;;;44.30;;
57746;SDS011;43580;44.014;20.466;2023-01-29T13:20:53;73.03;;;30.10;;
57746;SDS011;43580;44.014;20.466;2023-01-29T13:23:20;94.65;;;46.83;;
57746;SDS011;43580;44.014;20.466;2023-01-29T13:25:50;93.43;;;43.60;;
57746;SDS011;43580;44.014;20.466;2023-01-29T13:28:21;90.10;;;44.45;;
57746;SDS011;43580;44.014;20.466;2023-01-29T13:33:32;89.93;;;47.22;;
57746;SDS011;43580;44.014;20.466;2023-01-29T13:35:58;69.55;;;31.50;;
57746;SDS011;43580;44.014;20.466;2023-01-29T13:38:31;94.22;;;40.65;;
57746;SDS011;43580;44.014;20.466;2023-01-29T13:40:59;89.60;;;42.28;;
57746;SDS011;43580;44.014;20.466;2023-01-29T13:43:33;79.50;;;36.88;;
57746;SDS011;43580;44.014;20.466;2023-01-29T13:46:01;73.72;;;35.90;;
57746;SDS011;43580;44.014;20.466;2023-01-29T13:48:31;88.32;;;39.58;;
57746;SDS011;43580;44.014;20.466;2023-01-29T13:51:01;87.28;;;40.78;;
57746;SDS011;43580;44.014;20.466;2023-01-29T13:53:39;73.80;;;30.88;;
57746;SDS011;43580;44.014;20.466;2023-01-29T13:58:53;89.18;;;35.67;;
57746;SDS011;43580;44.014;20.466;2023-01-29T14:06:53;106.22;;;43.95;;
57746;SDS011;43580;44.014;20.466;2023-01-29T14:10:08;111.90;;;45.72;;
57746;SDS011;43580;44.014;20.466;2023-01-29T14:17:15;140.82;;;56.80;;
57746;SDS011;43580;44.014;20.466;2023-01-29T14:19:56;132.50;;;51.28;;
57746;SDS011;43580;44.014;20.466;2023-01-29T14:22:24;153.80;;;69.25;;
57746;SDS011;43580;44.014;20.466;2023-01-29T14:24:55;137.30;;;55.47;;
57746;SDS011;43580;44.014;20.466;2023-01-29T14:27:22;134.15;;;51.67;;
57746;SDS011;43580;44.014;20.466;2023-01-29T14:29:49;134.90;;;56.20;;
57746;SDS011;43580;44.014;20.466;2023-01-29T14:32:21;106.68;;;44.35;;
57746;SDS011;43580;44.014;20.466;2023-01-29T14:35:04;112.15;;;48.17;;
57746;SDS011;43580;44.014;20.466;2023-01-29T14:37:38;100.65;;;46.15;;
57746;SDS011;43580;44.014;20.466;2023-01-29T14:47:51;115.47;;;50.38;;
57746;SDS011;43580;44.014;20.466;2023-01-29T14:58:12;91.65;;;39.72;;
57746;SDS011;43580;44.014;20.466;2023-01-29T15:00:40;99.38;;;44.90;;
57746;SDS011;43580;44.014;20.466;2023-01-29T15:06:06;171.73;;;109.57;;
57746;SDS011;43580;44.014;20.466;2023-01-29T15:08:40;176.15;;;109.00;;
57746;SDS011;43580;44.014;20.466;2023-01-29T15:11:13;118.40;;;57.42;;
57746;SDS011;43580;44.014;20.466;2023-01-29T15:16:50;98.32;;;39.97;;
57746;SDS011;43580;44.014;20.466;2023-01-29T15:19:24;103.10;;;47.92;;
57746;SDS011;43580;44.014;20.466;2023-01-29T15:22:11;99.35;;;40.97;;
57746;SDS011;43580;44.014;20.466;2023-01-29T15:24:37;110.63;;;49.65;;
57746;SDS011;43580;44.014;20.466;2023-01-29T15:27:14;102.68;;;46.08;;
57746;SDS011;43580;44.014;20.466;2023-01-29T15:29:53;102.90;;;46.35;;
57746;SDS011;43580;44.014;20.466;2023-01-29T15:32:29;91.95;;;42.25;;
57746;SDS011;43580;44.014;20.466;2023-01-29T15:34:56;97.65;;;41.72;;
57746;SDS011;43580;44.014;20.466;2023-01-29T15:37:31;88.45;;;37.00;;
57746;SDS011;43580;44.014;20.466;2023-01-29T15:40:01;93.80;;;41.95;;
57746;SDS011;43580;44.014;20.466;2023-01-29T15:42:27;102.78;;;43.15;;
57746;SDS011;43580;44.014;20.466;2023-01-29T15:44:56;104.97;;;44.10;;
57746;SDS011;43580;44.014;20.466;2023-01-29T15:47:24;90.07;;;40.38;;
57746;SDS011;43580;44.014;20.466;2023-01-29T15:49:50;104.72;;;43.85;;
57746;SDS011;43580;44.014;20.466;2023-01-29T15:52:21;102.25;;;48.08;;
57746;SDS011;43580;44.014;20.466;2023-01-29T15:54:48;91.10;;;40.95;;
57746;SDS011;43580;44.014;20.466;2023-01-29T15:57:26;97.47;;;44.75;;
57746;SDS011;43580;44.014;20.466;2023-01-29T15:59:54;95.35;;;39.90;;
57746;SDS011;43580;44.014;20.466;2023-01-29T16:04:59;86.90;;;37.85;;
57746;SDS011;43580;44.014;20.466;2023-01-29T16:07:26;102.88;;;45.05;;
57746;SDS011;43580;44.014;20.466;2023-01-29T16:09:54;109.18;;;54.53;;
57746;SDS011;43580;44.014;20.466;2023-01-29T16:12:21;91.32;;;42.25;;
57746;SDS011;43580;44.014;20.466;2023-01-29T16:14:47;93.15;;;40.58;;
57746;SDS011;43580;44.014;20.466;2023-01-29T16:17:21;106.28;;;47.28;;
57746;SDS011;43580;44.014;20.466;2023-01-29T16:19:57;104.57;;;43.72;;
57746;SDS011;43580;44.014;20.466;2023-01-29T16:22:24;109.03;;;50.45;;
57746;SDS011;43580;44.014;20.466;2023-01-29T16:24:50;112.03;;;52.83;;
57746;SDS011;43580;44.014;20.466;2023-01-29T16:27:19;183.35;;;94.10;;
57746;SDS011;43580;44.014;20.466;2023-01-29T16:29:45;120.57;;;53.10;;
57746;SDS011;43580;44.014;20.466;2023-01-29T16:32:11;123.57;;;57.22;;
57746;SDS011;43580;44.014;20.466;2023-01-29T16:34:43;120.93;;;60.72;;
57746;SDS011;43580;44.014;20.466;2023-01-29T16:37:17;126.68;;;63.15;;
57746;SDS011;43580;44.014;20.466;2023-01-29T16:39:44;94.47;;;38.80;;
57746;SDS011;43580;44.014;20.466;2023-01-29T16:44:51;117.78;;;53.95;;